createdAt,value
2022-11-16T00:14:00.513Z,11.92852
2022-11-16T00:29:03.406Z,2.16882
2022-11-16T00:44:05.999Z,0
2022-11-16T00:59:08.398Z,0
2022-11-16T01:14:10.707Z,0
2022-11-16T01:29:13.348Z,0
2022-11-16T01:44:15.678Z,0
2022-11-16T01:59:18.249Z,0
2022-11-16T02:14:20.735Z,0
2022-11-16T02:29:23.301Z,0
2022-11-16T02:44:25.895Z,0
2022-11-16T02:59:28.506Z,0
2022-11-16T03:14:31.413Z,0
2022-11-16T03:29:33.763Z,0
2022-11-16T03:44:36.155Z,0
2022-11-16T03:59:38.609Z,0
2022-11-16T04:14:41.102Z,0
2022-11-16T04:29:43.586Z,0
2022-11-16T04:44:46.406Z,0
2022-11-16T04:59:49.169Z,0
2022-11-16T05:14:51.694Z,0
2022-11-16T05:29:54.547Z,0
2022-11-16T05:44:57.851Z,0
2022-11-16T06:00:00.718Z,0
2022-11-16T06:15:04.341Z,0
2022-11-16T06:30:09.565Z,0
2022-11-16T06:45:13.927Z,0
2022-11-16T07:00:20.837Z,0
2022-11-16T07:15:24.829Z,0
2022-11-16T07:30:29.019Z,0
2022-11-16T07:45:34.237Z,0
2022-11-16T08:00:36.793Z,0
2022-11-16T08:15:39.211Z,0
2022-11-16T08:30:41.542Z,0
2022-11-16T08:45:44.258Z,0
2022-11-16T09:00:46.732Z,0
2022-11-16T09:15:49.279Z,0
2022-11-16T09:30:52.100Z,0
2022-11-16T09:45:55.034Z,0
2022-11-16T10:00:57.437Z,0
2022-11-16T10:15:59.864Z,0
2022-11-16T10:31:02.156Z,0
2022-11-16T10:46:04.438Z,0
2022-11-16T11:01:06.793Z,0
2022-11-16T11:16:09.387Z,0
2022-11-16T11:31:11.774Z,0
2022-11-16T11:46:14.095Z,0
2022-11-16T12:01:20.749Z,0
2022-11-16T12:16:26.163Z,0
2022-11-16T12:31:28.619Z,0
2022-11-16T12:46:31.047Z,0
2022-11-16T13:01:33.353Z,0
2022-11-16T13:16:35.728Z,0
2022-11-16T13:31:37.997Z,0
2022-11-16T13:46:55.252Z,0
2022-11-16T14:01:58.795Z,0
2022-11-16T14:17:01.735Z,0
2022-11-16T14:32:04.256Z,0
2022-11-16T14:47:07.164Z,2.16882
2022-11-16T15:02:09.676Z,20.60381
2022-11-16T15:17:11.934Z,70.48673
2022-11-16T15:32:14.231Z,127.96053
2022-11-16T15:47:16.588Z,189.77197
2022-11-16T16:02:19.020Z,213.62901
2022-11-16T16:17:21.333Z,316.6481
2022-11-16T16:32:23.616Z,480.3942
2022-11-16T16:47:26.150Z,559.55621
2022-11-16T17:02:28.577Z,598.59503
2022-11-16T17:17:31.426Z,806.802
2022-11-16T17:32:34.302Z,900.06134
2022-11-16T17:47:37.051Z,1139.71619
2022-11-16T18:02:40.064Z,1559.38342
2022-11-16T18:17:42.540Z,1111.52148
2022-11-16T18:32:44.866Z,1719.87622
2022-11-16T18:47:47.491Z,1463.9552
2022-11-16T19:02:50.651Z,1620.11047
2022-11-16T19:18:14.692Z,1590.8313
2022-11-16T19:33:22.859Z,1514.92249
2022-11-16T19:48:25.199Z,1591.91577
2022-11-16T20:03:27.540Z,1504.07837
2022-11-16T20:18:29.971Z,1426.00085
2022-11-16T20:33:32.812Z,1309.96875
2022-11-16T20:48:35.329Z,1041.03479
2022-11-16T21:03:38.046Z,926.08722
2022-11-16T21:18:41.165Z,1486.72778
2022-11-16T21:33:43.443Z,1073.56714
2022-11-16T21:48:45.830Z,1357.68286
2022-11-16T22:03:49.013Z,905.4834
2022-11-16T22:18:51.447Z,653.89996
2022-11-16T22:33:53.771Z,360.02454
2022-11-16T22:48:56.141Z,348.09601
2022-11-16T23:03:58.445Z,324.23895
2022-11-16T23:19:00.819Z,151.81758
2022-11-16T23:34:03.253Z,106.2723
2022-11-16T23:49:05.632Z,56.38939
